sensor_id;sensor_type;location;lat;lon;timestamp;temperature;humidity
8269;DHT22;4174;48.304;16.364;2023-02-01T00:01:29;5.20;99.90
8269;DHT22;4174;48.304;16.364;2023-02-01T00:07:34;5.40;99.90
8269;DHT22;4174;48.304;16.364;2023-02-01T00:13:39;5.40;99.90
8269;DHT22;4174;48.304;16.364;2023-02-01T00:19:40;5.40;99.90
8269;DHT22;4174;48.304;16.364;2023-02-01T00:25:44;5.40;99.90
8269;DHT22;4174;48.304;16.364;2023-02-01T00:31:49;5.40;99.90
8269;DHT22;4174;48.304;16.364;2023-02-01T00:37:50;5.20;99.90
8269;DHT22;4174;48.304;16.364;2023-02-01T00:43:54;5.40;99.90
8269;DHT22;4174;48.304;16.364;2023-02-01T00:49:57;5.30;99.90
8269;DHT22;4174;48.304;16.364;2023-02-01T00:56:01;5.30;99.90
8269;DHT22;4174;48.304;16.364;2023-02-01T01:02:04;5.30;99.90
8269;DHT22;4174;48.304;16.364;2023-02-01T01:08:08;5.30;99.90
8269;DHT22;4174;48.304;16.364;2023-02-01T01:14:13;5.40;99.90
8269;DHT22;4174;48.304;16.364;2023-02-01T01:20:17;5.20;99.90
8269;DHT22;4174;48.304;16.364;2023-02-01T01:26:22;5.20;99.90
8269;DHT22;4174;48.304;16.364;2023-02-01T01:32:24;5.20;99.90
8269;DHT22;4174;48.304;16.364;2023-02-01T01:38:28;5.20;99.90
8269;DHT22;4174;48.304;16.364;2023-02-01T01:50:57;5.00;99.90
8269;DHT22;4174;48.304;16.364;2023-02-01T01:57:01;5.30;99.90
8269;DHT22;4174;48.304;16.364;2023-02-01T02:03:07;5.20;99.90
8269;DHT22;4174;48.304;16.364;2023-02-01T02:09:09;5.40;99.90
8269;DHT22;4174;48.304;16.364;2023-02-01T02:15:13;5.40;99.90
8269;DHT22;4174;48.304;16.364;2023-02-01T02:21:41;5.40;99.90
8269;DHT22;4174;48.304;16.364;2023-02-01T02:27:49;5.60;99.90
8269;DHT22;4174;48.304;16.364;2023-02-01T02:34:14;5.70;99.90
8269;DHT22;4174;48.304;16.364;2023-02-01T02:40:35;5.70;99.90
8269;DHT22;4174;48.304;16.364;2023-02-01T02:46:39;5.80;99.90
8269;DHT22;4174;48.304;16.364;2023-02-01T02:52:51;5.60;99.90
8269;DHT22;4174;48.304;16.364;2023-02-01T02:59:09;5.80;99.90
8269;DHT22;4174;48.304;16.364;2023-02-01T03:05:17;5.80;99.90
8269;DHT22;4174;48.304;16.364;2023-02-01T03:11:22;5.70;99.90
8269;DHT22;4174;48.304;16.364;2023-02-01T03:17:27;5.70;99.90
8269;DHT22;4174;48.304;16.364;2023-02-01T03:23:28;5.80;99.90
8269;DHT22;4174;48.304;16.364;2023-02-01T03:29:32;5.80;99.90
8269;DHT22;4174;48.304;16.364;2023-02-01T03:35:36;5.60;99.90
8269;DHT22;4174;48.304;16.364;2023-02-01T03:41:50;5.70;99.90
8269;DHT22;4174;48.304;16.364;2023-02-01T03:47:52;5.70;99.90
8269;DHT22;4174;48.304;16.364;2023-02-01T03:53:55;5.60;99.90
8269;DHT22;4174;48.304;16.364;2023-02-01T04:00:09;5.60;99.90
8269;DHT22;4174;48.304;16.364;2023-02-01T04:06:12;5.70;99.90
8269;DHT22;4174;48.304;16.364;2023-02-01T04:12:16;5.80;99.90
8269;DHT22;4174;48.304;16.364;2023-02-01T04:18:19;5.90;99.90
8269;DHT22;4174;48.304;16.364;2023-02-01T04:24:24;6.30;99.90
8269;DHT22;4174;48.304;16.364;2023-02-01T04:30:27;6.30;99.90
8269;DHT22;4174;48.304;16.364;2023-02-01T04:36:31;6.30;99.90
8269;DHT22;4174;48.304;16.364;2023-02-01T04:42:34;6.20;99.90
8269;DHT22;4174;48.304;16.364;2023-02-01T04:48:37;6.10;99.90
8269;DHT22;4174;48.304;16.364;2023-02-01T04:54:41;6.20;99.90
8269;DHT22;4174;48.304;16.364;2023-02-01T05:00:45;6.10;99.90
8269;DHT22;4174;48.304;16.364;2023-02-01T05:06:48;6.00;99.90
8269;DHT22;4174;48.304;16.364;2023-02-01T05:12:52;6.20;99.90
8269;DHT22;4174;48.304;16.364;2023-02-01T05:19:01;6.10;99.90
8269;DHT22;4174;48.304;16.364;2023-02-01T05:25:06;6.10;99.90
8269;DHT22;4174;48.304;16.364;2023-02-01T05:31:10;6.10;99.90
8269;DHT22;4174;48.304;16.364;2023-02-01T05:37:13;6.20;99.90
8269;DHT22;4174;48.304;16.364;2023-02-01T05:43:16;6.20;99.90
8269;DHT22;4174;48.304;16.364;2023-02-01T05:49:20;6.30;99.90
8269;DHT22;4174;48.304;16.364;2023-02-01T05:55:24;6.20;99.90
8269;DHT22;4174;48.304;16.364;2023-02-01T06:01:27;6.20;99.90
8269;DHT22;4174;48.304;16.364;2023-02-01T06:07:31;6.30;99.90
8269;DHT22;4174;48.304;16.364;2023-02-01T06:13:36;6.10;99.90
8269;DHT22;4174;48.304;16.364;2023-02-01T06:19:39;6.10;99.90
8269;DHT22;4174;48.304;16.364;2023-02-01T06:25:44;6.20;99.90
8269;DHT22;4174;48.304;16.364;2023-02-01T06:31:48;6.30;99.90
8269;DHT22;4174;48.304;16.364;2023-02-01T06:37:52;6.40;99.90
8269;DHT22;4174;48.304;16.364;2023-02-01T06:43:55;6.40;99.90
8269;DHT22;4174;48.304;16.364;2023-02-01T06:49:59;6.40;99.90
8269;DHT22;4174;48.304;16.364;2023-02-01T06:56:04;6.70;99.90
8269;DHT22;4174;48.304;16.364;2023-02-01T07:02:10;6.60;99.90
8269;DHT22;4174;48.304;16.364;2023-02-01T07:08:13;6.70;99.90
8269;DHT22;4174;48.304;16.364;2023-02-01T07:14:17;6.60;99.90
8269;DHT22;4174;48.304;16.364;2023-02-01T07:20:26;6.90;99.90
8269;DHT22;4174;48.304;16.364;2023-02-01T07:26:29;6.80;99.90
8269;DHT22;4174;48.304;16.364;2023-02-01T07:32:34;6.80;99.90
8269;DHT22;4174;48.304;16.364;2023-02-01T07:38:37;6.80;99.90
8269;DHT22;4174;48.304;16.364;2023-02-01T07:44:40;6.80;99.90
8269;DHT22;4174;48.304;16.364;2023-02-01T07:50:45;7.10;99.90
8269;DHT22;4174;48.304;16.364;2023-02-01T07:56:48;7.10;99.90
8269;DHT22;4174;48.304;16.364;2023-02-01T08:02:52;7.10;99.90
8269;DHT22;4174;48.304;16.364;2023-02-01T08:08:56;6.90;99.90
8269;DHT22;4174;48.304;16.364;2023-02-01T08:14:59;7.00;99.90
8269;DHT22;4174;48.304;16.364;2023-02-01T08:21:04;7.30;99.90
8269;DHT22;4174;48.304;16.364;2023-02-01T08:27:09;7.50;99.90
8269;DHT22;4174;48.304;16.364;2023-02-01T08:33:12;7.50;99.90
8269;DHT22;4174;48.304;16.364;2023-02-01T08:39:16;7.40;99.90
8269;DHT22;4174;48.304;16.364;2023-02-01T08:45:20;7.70;99.90
8269;DHT22;4174;48.304;16.364;2023-02-01T08:51:22;7.70;99.90
8269;DHT22;4174;48.304;16.364;2023-02-01T08:57:26;7.70;99.90
8269;DHT22;4174;48.304;16.364;2023-02-01T09:03:29;7.50;99.90
8269;DHT22;4174;48.304;16.364;2023-02-01T09:09:33;7.60;99.90
8269;DHT22;4174;48.304;16.364;2023-02-01T09:15:36;7.40;99.90
8269;DHT22;4174;48.304;16.364;2023-02-01T09:21:38;7.70;99.90
8269;DHT22;4174;48.304;16.364;2023-02-01T09:27:43;7.30;99.90
8269;DHT22;4174;48.304;16.364;2023-02-01T09:33:48;7.20;99.90
8269;DHT22;4174;48.304;16.364;2023-02-01T09:39:52;7.20;99.90
8269;DHT22;4174;48.304;16.364;2023-02-01T09:46:01;7.20;99.90
8269;DHT22;4174;48.304;16.364;2023-02-01T09:52:04;7.10;99.90
8269;DHT22;4174;48.304;16.364;2023-02-01T09:58:07;7.20;99.90
8269;DHT22;4174;48.304;16.364;2023-02-01T10:04:14;7.30;99.90
8269;DHT22;4174;48.304;16.364;2023-02-01T10:10:28;7.30;99.90
8269;DHT22;4174;48.304;16.364;2023-02-01T10:16:37;7.30;99.90
8269;DHT22;4174;48.304;16.364;2023-02-01T10:22:42;7.50;99.90
8269;DHT22;4174;48.304;16.364;2023-02-01T10:28:48;8.00;99.90
8269;DHT22;4174;48.304;16.364;2023-02-01T10:34:57;8.00;99.90
8269;DHT22;4174;48.304;16.364;2023-02-01T10:41:04;8.00;99.90
8269;DHT22;4174;48.304;16.364;2023-02-01T10:47:08;8.30;99.90
8269;DHT22;4174;48.304;16.364;2023-02-01T10:53:12;7.90;99.90
8269;DHT22;4174;48.304;16.364;2023-02-01T10:59:18;7.80;99.90
8269;DHT22;4174;48.304;16.364;2023-02-01T11:05:20;7.60;99.90
8269;DHT22;4174;48.304;16.364;2023-02-01T11:11:23;7.60;99.90
8269;DHT22;4174;48.304;16.364;2023-02-01T11:17:28;7.70;99.90
8269;DHT22;4174;48.304;16.364;2023-02-01T11:23:29;7.20;99.90
8269;DHT22;4174;48.304;16.364;2023-02-01T11:29:36;7.30;99.90
8269;DHT22;4174;48.304;16.364;2023-02-01T11:35:40;7.40;99.90
8269;DHT22;4174;48.304;16.364;2023-02-01T11:42:00;7.00;99.90
8269;DHT22;4174;48.304;16.364;2023-02-01T11:48:09;7.10;99.90
8269;DHT22;4174;48.304;16.364;2023-02-01T11:54:25;6.70;99.90
8269;DHT22;4174;48.304;16.364;2023-02-01T12:00:47;6.50;99.90
8269;DHT22;4174;48.304;16.364;2023-02-01T12:13:59;6.20;99.90
8269;DHT22;4174;48.304;16.364;2023-02-01T12:20:18;6.30;99.90
8269;DHT22;4174;48.304;16.364;2023-02-01T12:26:32;6.60;99.90
8269;DHT22;4174;48.304;16.364;2023-02-01T12:32:45;7.60;99.90
8269;DHT22;4174;48.304;16.364;2023-02-01T12:38:50;8.30;99.90
8269;DHT22;4174;48.304;16.364;2023-02-01T12:51:18;8.00;99.90
8269;DHT22;4174;48.304;16.364;2023-02-01T12:57:25;8.00;99.90
8269;DHT22;4174;48.304;16.364;2023-02-01T13:03:34;8.90;99.90
8269;DHT22;4174;48.304;16.364;2023-02-01T13:09:43;9.90;99.90
8269;DHT22;4174;48.304;16.364;2023-02-01T13:15:46;10.70;99.90
8269;DHT22;4174;48.304;16.364;2023-02-01T13:21:50;11.20;99.90
8269;DHT22;4174;48.304;16.364;2023-02-01T13:27:53;11.80;99.90
8269;DHT22;4174;48.304;16.364;2023-02-01T13:35:24;11.90;99.90
8269;DHT22;4174;48.304;16.364;2023-02-01T13:40:45;12.00;99.90
8269;DHT22;4174;48.304;16.364;2023-02-01T13:46:48;11.60;99.90
8269;DHT22;4174;48.304;16.364;2023-02-01T13:52:56;11.40;99.90
8269;DHT22;4174;48.304;16.364;2023-02-01T13:59:01;11.90;99.90
8269;DHT22;4174;48.304;16.364;2023-02-01T14:05:55;11.90;99.90
8269;DHT22;4174;48.304;16.364;2023-02-01T14:11:55;11.50;99.90
8269;DHT22;4174;48.304;16.364;2023-02-01T14:17:58;11.00;99.90
8269;DHT22;4174;48.304;16.364;2023-02-01T14:30:24;10.90;99.90
8269;DHT22;4174;48.304;16.364;2023-02-01T14:36:28;10.50;99.90
8269;DHT22;4174;48.304;16.364;2023-02-01T14:42:42;10.70;99.90
8269;DHT22;4174;48.304;16.364;2023-02-01T14:48:42;10.20;99.90
8269;DHT22;4174;48.304;16.364;2023-02-01T14:54:46;9.50;99.90
8269;DHT22;4174;48.304;16.364;2023-02-01T15:00:50;9.40;99.90
8269;DHT22;4174;48.304;16.364;2023-02-01T15:06:53;8.70;99.90
8269;DHT22;4174;48.304;16.364;2023-02-01T15:12:56;8.50;99.90
8269;DHT22;4174;48.304;16.364;2023-02-01T15:19:09;7.60;99.90
8269;DHT22;4174;48.304;16.364;2023-02-01T15:25:18;7.60;99.90
8269;DHT22;4174;48.304;16.364;2023-02-01T15:31:31;7.50;99.90
8269;DHT22;4174;48.304;16.364;2023-02-01T15:37:33;7.40;99.90
8269;DHT22;4174;48.304;16.364;2023-02-01T15:43:37;7.30;99.90
8269;DHT22;4174;48.304;16.364;2023-02-01T15:49:39;7.30;99.90
8269;DHT22;4174;48.304;16.364;2023-02-01T15:55:41;7.20;99.90
8269;DHT22;4174;48.304;16.364;2023-02-01T16:01:44;7.10;99.90
8269;DHT22;4174;48.304;16.364;2023-02-01T16:07:54;7.00;99.90
8269;DHT22;4174;48.304;16.364;2023-02-01T16:13:50;7.00;99.90
8269;DHT22;4174;48.304;16.364;2023-02-01T16:19:54;7.00;99.90
8269;DHT22;4174;48.304;16.364;2023-02-01T16:25:57;6.70;99.90
8269;DHT22;4174;48.304;16.364;2023-02-01T16:32:02;7.00;99.90
8269;DHT22;4174;48.304;16.364;2023-02-01T16:38:10;7.20;99.90
8269;DHT22;4174;48.304;16.364;2023-02-01T16:44:13;7.20;99.90
8269;DHT22;4174;48.304;16.364;2023-02-01T16:50:18;7.20;99.90
8269;DHT22;4174;48.304;16.364;2023-02-01T16:56:23;7.20;99.90
8269;DHT22;4174;48.304;16.364;2023-02-01T17:02:25;7.00;99.90
8269;DHT22;4174;48.304;16.364;2023-02-01T17:08:31;7.00;99.90
8269;DHT22;4174;48.304;16.364;2023-02-01T17:14:35;7.00;99.90
8269;DHT22;4174;48.304;16.364;2023-02-01T17:20:36;7.20;99.90
8269;DHT22;4174;48.304;16.364;2023-02-01T17:26:40;7.30;99.90
8269;DHT22;4174;48.304;16.364;2023-02-01T17:32:42;6.90;99.90
8269;DHT22;4174;48.304;16.364;2023-02-01T17:38:45;6.90;99.90
8269;DHT22;4174;48.304;16.364;2023-02-01T17:44:50;6.80;99.90
8269;DHT22;4174;48.304;16.364;2023-02-01T17:50:52;6.80;99.90
8269;DHT22;4174;48.304;16.364;2023-02-01T17:56:56;6.80;99.90
8269;DHT22;4174;48.304;16.364;2023-02-01T18:03:00;6.90;99.90
8269;DHT22;4174;48.304;16.364;2023-02-01T18:09:03;7.00;99.90
8269;DHT22;4174;48.304;16.364;2023-02-01T18:15:16;6.90;99.90
8269;DHT22;4174;48.304;16.364;2023-02-01T18:21:19;7.00;99.90
8269;DHT22;4174;48.304;16.364;2023-02-01T18:27:21;6.90;99.90
8269;DHT22;4174;48.304;16.364;2023-02-01T18:33:25;6.90;99.90
8269;DHT22;4174;48.304;16.364;2023-02-01T18:39:28;7.00;99.90
8269;DHT22;4174;48.304;16.364;2023-02-01T18:45:38;6.90;99.90
8269;DHT22;4174;48.304;16.364;2023-02-01T18:51:40;6.50;99.90
8269;DHT22;4174;48.304;16.364;2023-02-01T18:57:44;6.10;99.90
8269;DHT22;4174;48.304;16.364;2023-02-01T19:03:48;6.10;99.90
8269;DHT22;4174;48.304;16.364;2023-02-01T19:09:51;6.20;99.90
8269;DHT22;4174;48.304;16.364;2023-02-01T19:15:55;6.20;99.90
8269;DHT22;4174;48.304;16.364;2023-02-01T19:21:58;6.40;99.90
8269;DHT22;4174;48.304;16.364;2023-02-01T19:28:01;6.30;99.90
8269;DHT22;4174;48.304;16.364;2023-02-01T19:34:05;6.40;99.90
8269;DHT22;4174;48.304;16.364;2023-02-01T19:40:10;6.40;99.90
8269;DHT22;4174;48.304;16.364;2023-02-01T19:46:14;6.40;99.90
8269;DHT22;4174;48.304;16.364;2023-02-01T19:52:19;6.20;99.90
8269;DHT22;4174;48.304;16.364;2023-02-01T19:58:24;6.40;99.90
8269;DHT22;4174;48.304;16.364;2023-02-01T20:04:29;6.20;99.90
8269;DHT22;4174;48.304;16.364;2023-02-01T20:10:34;6.30;99.90
8269;DHT22;4174;48.304;16.364;2023-02-01T20:16:38;6.30;99.90
8269;DHT22;4174;48.304;16.364;2023-02-01T20:22:41;6.50;99.90
8269;DHT22;4174;48.304;16.364;2023-02-01T20:28:45;6.60;99.90
8269;DHT22;4174;48.304;16.364;2023-02-01T20:34:48;6.50;99.90
8269;DHT22;4174;48.304;16.364;2023-02-01T20:40:51;6.50;99.90
8269;DHT22;4174;48.304;16.364;2023-02-01T20:46:54;6.60;99.90
8269;DHT22;4174;48.304;16.364;2023-02-01T20:52:58;6.60;99.90
8269;DHT22;4174;48.304;16.364;2023-02-01T20:59:01;6.80;99.90
8269;DHT22;4174;48.304;16.364;2023-02-01T21:05:06;6.80;99.90
8269;DHT22;4174;48.304;16.364;2023-02-01T21:11:11;6.60;99.90
8269;DHT22;4174;48.304;16.364;2023-02-01T21:17:13;6.50;99.90
8269;DHT22;4174;48.304;16.364;2023-02-01T21:23:17;6.50;99.90
8269;DHT22;4174;48.304;16.364;2023-02-01T21:29:21;6.40;99.90
8269;DHT22;4174;48.304;16.364;2023-02-01T21:35:24;6.60;99.90
8269;DHT22;4174;48.304;16.364;2023-02-01T21:41:28;6.60;99.90
8269;DHT22;4174;48.304;16.364;2023-02-01T21:47:36;6.70;99.90
8269;DHT22;4174;48.304;16.364;2023-02-01T21:53:41;6.60;99.90
8269;DHT22;4174;48.304;16.364;2023-02-01T21:59:44;6.60;99.90
8269;DHT22;4174;48.304;16.364;2023-02-01T22:05:48;6.50;99.90
8269;DHT22;4174;48.304;16.364;2023-02-01T22:11:51;6.50;99.90
8269;DHT22;4174;48.304;16.364;2023-02-01T22:17:54;6.50;99.90
8269;DHT22;4174;48.304;16.364;2023-02-01T22:23:56;6.60;99.90
8269;DHT22;4174;48.304;16.364;2023-02-01T22:29:59;6.70;99.90
8269;DHT22;4174;48.304;16.364;2023-02-01T22:36:02;6.70;99.90
8269;DHT22;4174;48.304;16.364;2023-02-01T22:42:06;6.70;99.90
8269;DHT22;4174;48.304;16.364;2023-02-01T22:48:09;6.80;99.90
8269;DHT22;4174;48.304;16.364;2023-02-01T22:54:14;6.70;99.90
8269;DHT22;4174;48.304;16.364;2023-02-01T23:00:20;6.80;99.90
8269;DHT22;4174;48.304;16.364;2023-02-01T23:06:23;5.60;99.90
8269;DHT22;4174;48.304;16.364;2023-02-01T23:12:26;5.00;99.90
8269;DHT22;4174;48.304;16.364;2023-02-01T23:18:30;4.10;99.90
8269;DHT22;4174;48.304;16.364;2023-02-01T23:24:33;4.10;99.90
8269;DHT22;4174;48.304;16.364;2023-02-01T23:30:37;3.60;99.90
8269;DHT22;4174;48.304;16.364;2023-02-01T23:36:42;3.70;99.90
8269;DHT22;4174;48.304;16.364;2023-02-01T23:42:46;3.70;99.90
8269;DHT22;4174;48.304;16.364;2023-02-01T23:48:50;3.90;99.90
8269;DHT22;4174;48.304;16.364;2023-02-01T23:54:54;3.80;99.90
